createdAt,value
2023-03-11T00:01:57.345Z,71.25
2023-03-11T00:04:23.819Z,71.65
2023-03-11T00:06:50.288Z,71.57
2023-03-11T00:09:16.792Z,72.40
2023-03-11T00:11:43.246Z,71.61
2023-03-11T00:14:09.623Z,71.37
2023-03-11T00:16:36.147Z,69.81
2023-03-11T00:19:02.648Z,68.95
2023-03-11T00:21:29.215Z,67.58
2023-03-11T00:23:55.663Z,68.07
2023-03-11T00:26:22.444Z,68.07
2023-03-11T00:28:48.828Z,68.17
2023-03-11T00:31:15.515Z,68.10
2023-03-11T00:33:41.964Z,65.55
2023-03-11T00:36:11.563Z,64.91
2023-03-11T00:38:38.034Z,65.91
2023-03-11T00:41:04.586Z,65.61
2023-03-11T00:43:30.967Z,65.30
2023-03-11T00:45:57.490Z,66.13
2023-03-11T00:48:23.962Z,64.75
2023-03-11T00:50:50.362Z,64.16
2023-03-11T00:53:16.768Z,63.42
2023-03-11T00:55:43.229Z,62.46
2023-03-11T00:58:10.423Z,62.52
2023-03-11T01:00:36.899Z,61.32
2023-03-11T01:03:03.294Z,61.14
2023-03-11T01:05:30.450Z,59.87
2023-03-11T01:07:56.836Z,60.13
2023-03-11T01:10:23.351Z,60.94
2023-03-11T01:12:49.826Z,61.47
2023-03-11T01:15:23.622Z,61.17
2023-03-11T01:17:50.124Z,62.14
2023-03-11T01:20:16.760Z,61.42
2023-03-11T01:22:43.267Z,62.44
2023-03-11T01:25:10.954Z,63.36
2023-03-11T01:27:37.363Z,63.64
2023-03-11T01:30:05.054Z,63.59
2023-03-11T01:32:31.700Z,64.69
2023-03-11T01:34:58.118Z,63.55
2023-03-11T01:37:24.654Z,63.99
2023-03-11T01:39:51.159Z,65.37
2023-03-11T01:42:17.628Z,64.99
2023-03-11T01:44:43.982Z,64.73
2023-03-11T01:47:10.377Z,64.53
2023-03-11T01:49:36.763Z,65.06
2023-03-11T01:52:04.666Z,65.22
2023-03-11T01:54:31.603Z,65.90
2023-03-11T01:56:58.193Z,66.38
2023-03-11T01:59:25.350Z,66.74
2023-03-11T02:01:59.571Z,66.26
2023-03-11T02:04:26.781Z,66.33
2023-03-11T02:06:54.190Z,65.55
2023-03-11T02:09:20.730Z,65.09
2023-03-11T02:11:47.130Z,65.78
2023-03-11T02:14:13.675Z,65.42
2023-03-11T02:16:40.124Z,65.94
2023-03-11T02:19:12.692Z,65.58
2023-03-11T02:21:39.589Z,65.98
2023-03-11T02:24:23.114Z,66.01
2023-03-11T02:27:00.449Z,66.30
2023-03-11T02:29:27.134Z,66.84
2023-03-11T02:31:53.596Z,65.88
2023-03-11T02:34:30.247Z,66.99
2023-03-11T02:36:56.794Z,66.14
2023-03-11T02:39:33.159Z,67.08
2023-03-11T02:41:59.767Z,67.52
2023-03-11T02:44:26.197Z,68.52
2023-03-11T02:46:52.668Z,69.00
2023-03-11T02:49:19.996Z,69.61
2023-03-11T02:51:46.480Z,70.99
2023-03-11T02:54:12.927Z,72.80
2023-03-11T02:56:39.380Z,73.69
2023-03-11T02:59:05.817Z,75.73
2023-03-11T03:01:32.222Z,76.73
2023-03-11T03:03:58.831Z,78.06
2023-03-11T03:06:25.526Z,79.38
2023-03-11T03:08:51.901Z,78.86
2023-03-11T03:11:18.293Z,78.92
2023-03-11T03:13:44.739Z,78.73
2023-03-11T03:16:11.249Z,79.40
2023-03-11T03:18:37.756Z,78.61
2023-03-11T03:21:09.993Z,78.26
2023-03-11T03:23:36.443Z,78.17
2023-03-11T03:26:03.146Z,75.59
2023-03-11T03:28:29.682Z,75.53
2023-03-11T03:30:56.073Z,75.00
2023-03-11T03:33:22.477Z,74.73
2023-03-11T03:35:48.953Z,74.02
2023-03-11T03:38:15.387Z,74.68
2023-03-11T03:40:45.399Z,74.50
2023-03-11T03:43:11.903Z,74.91
2023-03-11T03:45:38.384Z,76.21
2023-03-11T03:48:05.006Z,76.89
2023-03-11T03:50:31.483Z,77.65
2023-03-11T03:52:57.951Z,78.78
2023-03-11T03:55:24.423Z,80.63
2023-03-11T03:57:50.884Z,82.41
2023-03-11T04:00:17.612Z,84.00
2023-03-11T04:02:44.038Z,84.29
2023-03-11T04:05:10.467Z,84.76
2023-03-11T04:07:36.938Z,84.77
2023-03-11T04:10:03.896Z,83.61
2023-03-11T04:12:30.332Z,82.69
2023-03-11T04:14:56.838Z,81.17
2023-03-11T04:17:23.269Z,81.47
2023-03-11T04:19:49.712Z,80.48
2023-03-11T04:22:16.160Z,79.91
2023-03-11T04:24:42.561Z,80.18
2023-03-11T04:27:08.989Z,80.40
2023-03-11T04:29:35.468Z,80.01
2023-03-11T04:32:01.976Z,79.82
2023-03-11T04:34:28.358Z,80.46
2023-03-11T04:36:54.834Z,79.89
2023-03-11T04:39:21.315Z,79.36
2023-03-11T04:41:47.740Z,79.24
2023-03-11T04:44:14.138Z,79.59
2023-03-11T04:46:40.554Z,78.27
2023-03-11T04:49:06.998Z,78.04
2023-03-11T04:51:33.435Z,78.22
2023-03-11T04:53:59.859Z,77.53
2023-03-11T04:56:26.282Z,77.12
2023-03-11T04:58:52.986Z,76.58
2023-03-11T05:01:19.445Z,76.62
2023-03-11T05:03:45.896Z,76.75
2023-03-11T05:06:12.818Z,76.41
2023-03-11T05:08:39.322Z,76.26
2023-03-11T05:11:05.853Z,75.74
2023-03-11T05:13:32.271Z,75.67
2023-03-11T05:15:58.739Z,75.99
2023-03-11T05:18:25.180Z,75.67
2023-03-11T05:20:51.669Z,75.81
2023-03-11T05:23:18.103Z,75.60
2023-03-11T05:25:44.889Z,76.22
2023-03-11T05:28:11.471Z,76.41
2023-03-11T05:30:37.974Z,76.29
2023-03-11T05:33:04.428Z,75.89
2023-03-11T05:35:30.894Z,76.07
2023-03-11T05:37:57.659Z,75.89
2023-03-11T05:40:24.089Z,75.80
2023-03-11T05:42:50.510Z,74.97
2023-03-11T05:45:16.996Z,75.13
2023-03-11T05:47:43.526Z,74.89
2023-03-11T05:50:10.794Z,74.90
2023-03-11T05:52:37.196Z,75.17
2023-03-11T05:55:03.798Z,74.95
2023-03-11T05:57:30.185Z,74.57
2023-03-11T05:59:56.837Z,74.39
2023-03-11T06:02:23.263Z,74.52
2023-03-11T06:04:49.868Z,74.60
2023-03-11T06:07:16.416Z,74.31
2023-03-11T06:09:42.856Z,74.23
2023-03-11T06:12:09.303Z,74.57
2023-03-11T06:14:35.781Z,74.34
2023-03-11T06:17:02.201Z,74.34
2023-03-11T06:19:28.607Z,74.95
2023-03-11T06:21:55.180Z,74.58
2023-03-11T06:24:21.672Z,74.13
2023-03-11T06:26:50.801Z,74.03
2023-03-11T06:29:17.213Z,73.80
2023-03-11T06:31:43.670Z,73.30
2023-03-11T06:34:10.813Z,73.04
2023-03-11T06:36:37.368Z,73.74
2023-03-11T06:39:03.867Z,73.14
2023-03-11T06:41:32.631Z,72.65
2023-03-11T06:43:59.011Z,73.33
2023-03-11T06:46:25.437Z,73.18
2023-03-11T06:48:51.892Z,72.75
2023-03-11T06:51:18.611Z,73.20
2023-03-11T06:53:45.937Z,73.58
2023-03-11T06:56:12.731Z,73.42
2023-03-11T06:58:40.730Z,73.16
2023-03-11T07:01:08.015Z,73.28
2023-03-11T07:03:34.612Z,73.85
2023-03-11T07:06:01.131Z,73.89
2023-03-11T07:08:27.621Z,73.23
2023-03-11T07:11:01.218Z,72.58
2023-03-11T07:13:27.922Z,73.00
2023-03-11T07:16:01.487Z,72.52
2023-03-11T07:18:28.299Z,72.35
2023-03-11T07:20:54.728Z,71.33
2023-03-11T07:23:21.566Z,71.95
2023-03-11T07:25:48.350Z,71.89
2023-03-11T07:28:15.300Z,71.19
2023-03-11T07:30:42.645Z,70.76
2023-03-11T07:33:09.146Z,69.74
2023-03-11T07:35:35.737Z,67.54
2023-03-11T07:38:02.658Z,67.35
2023-03-11T07:40:29.131Z,68.31
2023-03-11T07:42:55.602Z,67.12
2023-03-11T07:45:21.978Z,66.77
2023-03-11T07:47:48.322Z,66.86
2023-03-11T07:50:15.644Z,65.94
2023-03-11T07:52:42.109Z,64.21
2023-03-11T07:55:08.639Z,63.59
2023-03-11T07:57:35.034Z,62.90
2023-03-11T08:00:01.481Z,61.65
2023-03-11T08:02:28.023Z,62.67
2023-03-11T08:04:55.509Z,62.37
2023-03-11T08:07:21.946Z,61.39
2023-03-11T08:09:48.376Z,59.72
2023-03-11T08:12:15.281Z,61.34
2023-03-11T08:14:41.684Z,59.50
2023-03-11T08:17:08.210Z,56.15
2023-03-11T08:19:34.582Z,53.88
2023-03-11T08:22:01.650Z,55.16
2023-03-11T08:24:28.165Z,55.77
2023-03-11T08:26:54.650Z,55.98
2023-03-11T08:29:21.126Z,57.11
2023-03-11T08:31:47.521Z,56.12
2023-03-11T08:34:13.937Z,57.30
2023-03-11T08:36:40.587Z,58.39
2023-03-11T08:39:07.097Z,58.84
2023-03-11T08:41:33.605Z,58.99
2023-03-11T08:44:00.106Z,55.22
2023-03-11T08:46:27.631Z,50.96
2023-03-11T08:48:54.165Z,49.26
2023-03-11T08:51:20.542Z,51.39
2023-03-11T08:53:47.958Z,49.03
2023-03-11T08:56:14.431Z,47.92
2023-03-11T08:58:41.681Z,48.69
2023-03-11T09:01:08.172Z,48.67
2023-03-11T09:03:34.811Z,45.33
2023-03-11T09:06:01.628Z,47.41
2023-03-11T09:08:28.248Z,50.07
2023-03-11T09:10:54.606Z,46.50
2023-03-11T09:13:21.036Z,49.91
2023-03-11T09:15:50.607Z,49.36
2023-03-11T09:18:17.300Z,51.54
2023-03-11T09:20:43.788Z,52.53
2023-03-11T09:23:10.771Z,51.78
2023-03-11T09:25:37.195Z,53.65
2023-03-11T09:28:03.938Z,52.72
2023-03-11T09:30:30.322Z,54.06
2023-03-11T09:32:56.964Z,51.73
2023-03-11T09:35:23.450Z,50.50
2023-03-11T09:37:49.922Z,45.68
2023-03-11T09:40:17.295Z,43.27
2023-03-11T09:42:59.076Z,44.50
2023-03-11T09:45:27.321Z,43.71
2023-03-11T09:47:56.668Z,44.52
2023-03-11T09:50:26.924Z,44.12
2023-03-11T09:52:56.282Z,41.79
2023-03-11T09:55:22.717Z,43.63
2023-03-11T09:57:49.134Z,43.44
2023-03-11T10:00:15.704Z,43.75
2023-03-11T10:02:42.313Z,46.33
2023-03-11T10:05:12.627Z,47.12
2023-03-11T10:07:42.241Z,44.95
2023-03-11T10:10:11.443Z,49.99
2023-03-11T10:12:50.170Z,48.87
2023-03-11T10:15:16.573Z,47.82
2023-03-11T10:17:46.116Z,49.37
2023-03-11T10:20:19.421Z,51.52
2023-03-11T10:22:52.382Z,51.38
2023-03-11T10:25:21.083Z,51.00
2023-03-11T10:28:06.816Z,50.91
2023-03-11T10:30:52.227Z,53.07
2023-03-11T10:33:21.328Z,53.67
2023-03-11T10:35:49.903Z,55.55
2023-03-11T10:38:25.653Z,52.51
2023-03-11T10:40:53.813Z,50.89
2023-03-11T10:43:27.365Z,51.34
2023-03-11T10:45:53.850Z,52.48
2023-03-11T10:48:21.523Z,51.74
2023-03-11T10:50:54.163Z,48.74
2023-03-11T10:53:21.268Z,50.43
2023-03-11T10:55:48.676Z,47.14
2023-03-11T10:58:19.389Z,47.32
2023-03-11T11:00:45.851Z,48.72
2023-03-11T11:03:17.073Z,49.53
2023-03-11T11:05:43.499Z,52.31
2023-03-11T11:08:12.893Z,55.69
2023-03-11T11:10:48.776Z,55.71
2023-03-11T11:13:16.463Z,53.67
2023-03-11T11:15:50.990Z,54.06
2023-03-11T11:18:28.324Z,54.26
2023-03-11T11:20:54.760Z,55.00
2023-03-11T11:23:47.525Z,54.22
2023-03-11T11:26:23.958Z,52.15
2023-03-11T11:29:08.961Z,50.95
2023-03-11T11:31:36.128Z,49.53
2023-03-11T11:34:03.109Z,50.47
2023-03-11T11:36:29.998Z,52.57
2023-03-11T11:38:56.540Z,52.72
2023-03-11T11:41:23.536Z,54.14
2023-03-11T11:43:51.310Z,54.42
2023-03-11T11:46:22.256Z,54.72
2023-03-11T11:48:51.836Z,55.28
2023-03-11T11:51:20.190Z,54.69
2023-03-11T11:53:52.590Z,56.76
2023-03-11T11:56:18.978Z,56.79
2023-03-11T11:58:45.476Z,56.96
2023-03-11T12:01:35.105Z,56.69
2023-03-11T12:04:01.752Z,56.30
2023-03-11T12:06:44.540Z,55.53
2023-03-11T12:09:11.020Z,55.49
2023-03-11T12:11:41.827Z,56.93
2023-03-11T12:14:15.222Z,56.23
2023-03-11T12:16:41.615Z,56.90
2023-03-11T12:19:26.670Z,56.72
2023-03-11T12:21:53.100Z,57.53
2023-03-11T12:24:19.438Z,57.01
2023-03-11T12:26:45.920Z,56.69
2023-03-11T12:29:16.079Z,56.41
2023-03-11T12:31:42.720Z,56.32
2023-03-11T12:34:12.951Z,56.82
2023-03-11T12:36:40.499Z,57.38
2023-03-11T12:39:27.150Z,57.51
2023-03-11T12:42:20.115Z,58.27
2023-03-11T12:44:46.793Z,56.80
2023-03-11T12:47:13.210Z,56.95
2023-03-11T12:49:43.331Z,55.66
2023-03-11T12:52:12.889Z,55.43
2023-03-11T12:54:39.767Z,55.09
2023-03-11T12:57:12.470Z,55.76
2023-03-11T12:59:47.834Z,54.86
2023-03-11T13:02:35.251Z,54.63
2023-03-11T13:05:14.057Z,53.41
2023-03-11T13:07:59.346Z,52.81
2023-03-11T13:10:44.821Z,52.61
2023-03-11T13:13:22.396Z,52.93
2023-03-11T13:15:49.053Z,54.62
2023-03-11T13:18:17.156Z,53.76
2023-03-11T13:20:46.068Z,54.76
2023-03-11T13:23:12.502Z,54.45
2023-03-11T13:25:39.662Z,54.76
2023-03-11T13:28:25.004Z,54.27
2023-03-11T13:30:53.701Z,53.66
2023-03-11T13:33:20.052Z,54.66
2023-03-11T13:35:59.151Z,53.86
2023-03-11T13:38:44.568Z,54.18
2023-03-11T13:41:17.704Z,55.37
2023-03-11T13:43:45.079Z,54.67
2023-03-11T13:46:19.338Z,55.34
2023-03-11T13:48:48.888Z,54.88
2023-03-11T13:51:16.581Z,52.81
2023-03-11T13:53:47.686Z,53.87
2023-03-11T13:56:17.356Z,56.14
2023-03-11T13:58:43.781Z,58.78
2023-03-11T14:01:14.694Z,59.98
2023-03-11T14:03:41.643Z,61.45
2023-03-11T14:06:08.904Z,59.78
2023-03-11T14:08:35.959Z,60.74
2023-03-11T14:11:02.345Z,61.74
2023-03-11T14:13:29.521Z,61.81
2023-03-11T14:15:58.986Z,60.78
2023-03-11T14:18:32.666Z,60.80
2023-03-11T14:20:59.172Z,60.55
2023-03-11T14:23:29.117Z,60.31
2023-03-11T14:26:02.983Z,58.86
2023-03-11T14:28:29.418Z,58.85
2023-03-11T14:30:56.410Z,59.57
2023-03-11T14:33:22.997Z,59.28
2023-03-11T14:35:53.020Z,59.83
2023-03-11T14:38:23.015Z,59.31
2023-03-11T14:40:51.526Z,58.87
2023-03-11T14:43:18.409Z,59.25
2023-03-11T14:45:44.900Z,59.16
2023-03-11T14:48:15.431Z,58.89
2023-03-11T14:50:41.976Z,60.01
2023-03-11T14:53:15.838Z,59.59
2023-03-11T14:55:45.344Z,59.83
2023-03-11T14:58:31.520Z,60.31
2023-03-11T15:01:05.791Z,58.82
2023-03-11T15:03:35.513Z,59.47
2023-03-11T15:06:06.965Z,60.07
2023-03-11T15:08:34.830Z,59.35
2023-03-11T15:11:03.135Z,59.89
2023-03-11T15:13:29.914Z,59.54
2023-03-11T15:15:57.207Z,59.53
2023-03-11T15:18:24.421Z,60.10
2023-03-11T15:21:07.283Z,59.60
2023-03-11T15:23:36.720Z,59.50
2023-03-11T15:26:03.636Z,60.17
2023-03-11T15:28:33.496Z,59.61
2023-03-11T15:31:18.920Z,58.65
2023-03-11T15:33:45.515Z,58.82
2023-03-11T15:36:31.386Z,58.29
2023-03-11T15:39:14.549Z,58.36
2023-03-11T15:41:43.557Z,58.27
2023-03-11T15:44:28.329Z,60.45
2023-03-11T15:46:54.788Z,59.87
2023-03-11T15:49:21.320Z,61.19
2023-03-11T15:51:47.743Z,61.21
2023-03-11T15:54:14.160Z,61.93
2023-03-11T15:56:40.662Z,61.48
2023-03-11T15:59:07.242Z,61.13
2023-03-11T16:01:33.605Z,60.77
2023-03-11T16:04:00.109Z,60.85
2023-03-11T16:06:26.519Z,60.60
2023-03-11T16:08:52.915Z,61.21
2023-03-11T16:11:19.340Z,61.47
2023-03-11T16:13:45.825Z,61.34
2023-03-11T16:16:15.853Z,61.37
2023-03-11T16:18:42.378Z,61.25
2023-03-11T16:21:10.640Z,60.94
2023-03-11T16:23:50.642Z,61.63
2023-03-11T16:26:18.915Z,62.21
2023-03-11T16:28:45.418Z,62.44
2023-03-11T16:31:11.928Z,62.51
2023-03-11T16:33:38.437Z,62.69
2023-03-11T16:36:05.159Z,62.92
2023-03-11T16:38:31.827Z,63.29
2023-03-11T16:40:59.032Z,63.67
2023-03-11T16:43:25.737Z,63.00
2023-03-11T16:45:52.189Z,63.48
2023-03-11T16:48:18.632Z,63.02
2023-03-11T16:50:44.999Z,63.92
2023-03-11T16:53:11.385Z,63.96
2023-03-11T16:55:37.878Z,64.23
2023-03-11T16:58:04.245Z,64.63
2023-03-11T17:00:30.822Z,64.94
2023-03-11T17:02:57.411Z,64.54
2023-03-11T17:05:23.844Z,64.92
2023-03-11T17:07:56.792Z,65.44
2023-03-11T17:10:23.216Z,66.31
2023-03-11T17:12:49.653Z,66.45
2023-03-11T17:15:16.088Z,66.03
2023-03-11T17:17:42.473Z,66.96
2023-03-11T17:20:10.583Z,67.09
2023-03-11T17:22:37.011Z,67.00
2023-03-11T17:25:03.686Z,66.80
2023-03-11T17:27:30.462Z,67.15
2023-03-11T17:29:56.918Z,66.25
2023-03-11T17:32:23.467Z,66.30
2023-03-11T17:34:49.911Z,66.57
2023-03-11T17:37:16.316Z,66.45
2023-03-11T17:39:42.777Z,67.34
2023-03-11T17:42:09.338Z,67.03
2023-03-11T17:44:50.648Z,65.99
2023-03-11T17:47:18.368Z,66.69
2023-03-11T17:49:44.824Z,65.54
2023-03-11T17:52:11.323Z,65.52
2023-03-11T17:54:37.816Z,65.96
2023-03-11T17:57:04.324Z,66.54
2023-03-11T17:59:30.703Z,66.29
2023-03-11T18:01:57.177Z,66.29
2023-03-11T18:04:23.808Z,66.73
2023-03-11T18:06:50.205Z,66.90
2023-03-11T18:09:16.607Z,68.05
2023-03-11T18:11:43.110Z,69.19
2023-03-11T18:14:09.615Z,68.63
2023-03-11T18:16:36.025Z,67.65
2023-03-11T18:19:02.494Z,68.09
2023-03-11T18:21:29.536Z,69.60
2023-03-11T18:23:56.415Z,67.90
2023-03-11T18:26:22.940Z,68.10
2023-03-11T18:28:52.046Z,68.17
2023-03-11T18:31:19.244Z,70.19
2023-03-11T18:33:49.789Z,70.99
2023-03-11T18:36:23.511Z,73.73
2023-03-11T18:38:49.919Z,73.72
2023-03-11T18:41:16.317Z,73.26
2023-03-11T18:43:42.753Z,73.13
2023-03-11T18:46:12.194Z,73.92
2023-03-11T18:48:38.644Z,73.11
2023-03-11T18:51:05.337Z,72.43
2023-03-11T18:53:31.742Z,72.14
2023-03-11T18:55:58.856Z,71.65
2023-03-11T18:58:25.248Z,72.89
2023-03-11T19:00:51.718Z,72.45
2023-03-11T19:03:18.154Z,72.59
2023-03-11T19:05:50.552Z,72.27
2023-03-11T19:08:17.248Z,71.08
2023-03-11T19:10:43.712Z,72.11
2023-03-11T19:13:10.211Z,72.46
2023-03-11T19:15:42.902Z,71.86
2023-03-11T19:18:09.378Z,72.38
2023-03-11T19:20:35.776Z,72.96
2023-03-11T19:23:02.287Z,75.81
2023-03-11T19:25:28.766Z,75.01
2023-03-11T19:27:55.353Z,76.01
2023-03-11T19:30:21.881Z,78.07
2023-03-11T19:32:48.345Z,78.44
2023-03-11T19:35:16.326Z,78.81
2023-03-11T19:37:42.738Z,77.94
2023-03-11T19:40:11.389Z,77.29
2023-03-11T19:42:37.967Z,77.63
2023-03-11T19:45:04.652Z,76.95
2023-03-11T19:47:31.079Z,77.93
2023-03-11T19:49:57.613Z,77.67
2023-03-11T19:52:24.087Z,77.22
2023-03-11T19:54:50.563Z,76.85
2023-03-11T19:57:17.062Z,78.82
2023-03-11T19:59:43.604Z,78.07
2023-03-11T20:02:13.358Z,78.82
2023-03-11T20:04:43.121Z,79.81
2023-03-11T20:07:09.857Z,79.77
2023-03-11T20:09:36.402Z,78.85
2023-03-11T20:12:02.929Z,82.05
2023-03-11T20:14:29.413Z,84.08
2023-03-11T20:16:55.869Z,83.61
2023-03-11T20:19:22.458Z,82.54
2023-03-11T20:21:49.152Z,82.46
2023-03-11T20:24:15.755Z,81.70
2023-03-11T20:26:42.213Z,80.35
2023-03-11T20:29:08.707Z,80.00
2023-03-11T20:31:35.306Z,79.60
2023-03-11T20:34:02.590Z,79.00
2023-03-11T20:36:30.108Z,79.36
2023-03-11T20:38:56.672Z,81.51
2023-03-11T20:41:23.407Z,82.21
2023-03-11T20:43:55.945Z,82.93
2023-03-11T20:46:22.504Z,83.13
2023-03-11T20:48:49.344Z,83.10
2023-03-11T20:51:16.244Z,81.99
2023-03-11T20:53:42.665Z,80.72
2023-03-11T20:56:10.180Z,81.00
2023-03-11T20:58:36.717Z,80.42
2023-03-11T21:01:12.600Z,80.54
2023-03-11T21:03:39.189Z,82.22
2023-03-11T21:06:12.203Z,83.55
2023-03-11T21:08:38.724Z,84.06
2023-03-11T21:11:05.333Z,84.31
2023-03-11T21:13:31.843Z,83.73
2023-03-11T21:15:58.349Z,83.33
2023-03-11T21:18:25.015Z,84.08
2023-03-11T21:20:51.558Z,83.49
2023-03-11T21:23:18.257Z,83.42
2023-03-11T21:25:44.722Z,83.13
2023-03-11T21:28:11.230Z,82.59
2023-03-11T21:30:37.895Z,82.62
2023-03-11T21:33:04.432Z,82.39
2023-03-11T21:35:31.091Z,82.04
2023-03-11T21:37:57.811Z,81.17
2023-03-11T21:40:24.448Z,82.42
2023-03-11T21:42:50.946Z,83.35
2023-03-11T21:45:17.526Z,83.59
2023-03-11T21:47:44.122Z,83.48
2023-03-11T21:50:10.965Z,83.46
2023-03-11T21:52:37.390Z,83.68
2023-03-11T21:55:04.044Z,84.44
2023-03-11T21:57:30.509Z,84.86
2023-03-11T21:59:57.032Z,84.03
2023-03-11T22:02:23.528Z,84.24
2023-03-11T22:04:50.082Z,83.35
2023-03-11T22:07:16.631Z,83.27
2023-03-11T22:09:43.443Z,84.42
2023-03-11T22:12:10.100Z,85.39
2023-03-11T22:14:36.832Z,84.89
2023-03-11T22:17:03.661Z,83.76
2023-03-11T22:19:30.312Z,84.23
2023-03-11T22:21:56.954Z,84.70
2023-03-11T22:24:23.510Z,85.34
2023-03-11T22:26:49.999Z,85.50
2023-03-11T22:29:16.550Z,85.00
2023-03-11T22:31:43.140Z,84.37
2023-03-11T22:34:09.645Z,84.26
2023-03-11T22:36:36.054Z,84.02
2023-03-11T22:39:02.517Z,85.08
2023-03-11T22:41:28.927Z,85.78
2023-03-11T22:43:55.351Z,85.07
2023-03-11T22:46:21.820Z,84.46
2023-03-11T22:48:48.256Z,84.78
2023-03-11T22:51:14.693Z,84.30
2023-03-11T22:53:41.127Z,84.05
2023-03-11T22:56:08.542Z,83.47
2023-03-11T22:58:34.977Z,84.01
2023-03-11T23:01:01.364Z,85.72
2023-03-11T23:03:27.978Z,85.26
2023-03-11T23:05:54.617Z,83.74
2023-03-11T23:08:21.042Z,83.71
2023-03-11T23:10:47.456Z,83.89
2023-03-11T23:13:14.164Z,83.51
2023-03-11T23:15:41.169Z,83.32
2023-03-11T23:18:07.709Z,83.25
2023-03-11T23:20:34.679Z,83.78
2023-03-11T23:23:01.075Z,83.14
2023-03-11T23:25:27.567Z,83.69
2023-03-11T23:27:54.076Z,83.47
2023-03-11T23:30:20.548Z,82.61
2023-03-11T23:32:47.002Z,83.42
2023-03-11T23:35:13.424Z,82.62
2023-03-11T23:37:39.964Z,83.17
2023-03-11T23:40:06.806Z,83.54
2023-03-11T23:42:33.519Z,83.01
2023-03-11T23:44:59.911Z,82.82
2023-03-11T23:47:26.520Z,82.65
2023-03-11T23:49:53.315Z,83.67
2023-03-11T23:52:19.775Z,85.17
2023-03-11T23:54:46.192Z,83.81
2023-03-11T23:57:12.634Z,84.80
2023-03-11T23:59:39.413Z,84.68
